createdAt,value
2022-07-31T00:01:37.620Z,15.25
2022-07-31T00:03:39.476Z,15.25
2022-07-31T00:05:41.707Z,15.26
2022-07-31T00:07:41.384Z,15.25
2022-07-31T00:09:45.446Z,15.28
2022-07-31T00:11:44.688Z,15.3
2022-07-31T00:13:56.942Z,15.33
2022-07-31T00:15:47.620Z,15.33
2022-07-31T00:17:49.179Z,15.36
2022-07-31T00:19:50.716Z,15.37
2022-07-31T00:21:52.254Z,15.38
2022-07-31T00:23:53.336Z,15.34
2022-07-31T00:25:54.318Z,15.32
2022-07-31T00:27:55.329Z,15.29
2022-07-31T00:29:56.565Z,15.24
2022-07-31T00:31:57.832Z,15.16
2022-07-31T00:33:59.034Z,15.11
2022-07-31T00:35:59.916Z,15.13
2022-07-31T00:38:24.847Z,15.1
2022-07-31T00:40:02.971Z,15.03
2022-07-31T00:42:04.346Z,15.03
2022-07-31T00:44:05.258Z,14.97
2022-07-31T00:46:06.609Z,14.88
2022-07-31T00:48:07.631Z,14.79
2022-07-31T00:50:09.203Z,14.7
2022-07-31T00:52:11.143Z,14.65
2022-07-31T00:54:13.635Z,14.55
2022-07-31T00:56:13.966Z,14.54
2022-07-31T00:58:15.360Z,14.57
2022-07-31T01:00:16.653Z,14.57
2022-07-31T01:02:18.021Z,14.67
2022-07-31T01:04:19.768Z,14.7
2022-07-31T01:06:20.924Z,14.69
2022-07-31T01:08:22.452Z,14.62
2022-07-31T01:10:24.118Z,14.55
2022-07-31T01:12:25.736Z,14.53
2022-07-31T01:14:26.867Z,14.48
2022-07-31T01:16:28.020Z,14.46
2022-07-31T01:18:29.506Z,14.4
2022-07-31T01:20:31.225Z,14.4
2022-07-31T01:22:35.048Z,14.37
2022-07-31T01:24:34.403Z,14.31
2022-07-31T01:26:35.693Z,14.22
2022-07-31T01:28:36.981Z,14.12
2022-07-31T01:30:37.994Z,14.04
2022-07-31T01:32:39.540Z,13.89
2022-07-31T01:34:41.230Z,13.78
2022-07-31T01:36:42.471Z,13.82
2022-07-31T01:38:45.612Z,13.85
2022-07-31T01:40:45.501Z,13.86
2022-07-31T01:42:47.434Z,13.88
2022-07-31T01:44:49.108Z,14.05
2022-07-31T01:46:50.869Z,14.1
2022-07-31T01:48:52.478Z,14.12
2022-07-31T01:52:55.115Z,14.17
2022-07-31T01:54:56.776Z,14.09
2022-07-31T01:56:57.824Z,14.07
2022-07-31T01:58:59.470Z,14.05
2022-07-31T02:01:00.907Z,13.97
2022-07-31T02:03:09.253Z,13.89
2022-07-31T02:05:03.249Z,13.93
2022-07-31T02:07:04.678Z,13.9
2022-07-31T02:09:05.971Z,13.81
2022-07-31T02:11:06.891Z,13.73
2022-07-31T02:13:08.342Z,13.68
2022-07-31T02:15:09.583Z,13.53
2022-07-31T02:17:10.907Z,13.64
2022-07-31T02:19:12.367Z,13.62
2022-07-31T02:21:13.486Z,13.74
2022-07-31T02:23:15.050Z,13.77
2022-07-31T02:25:16.489Z,13.78
2022-07-31T02:27:53.504Z,13.79
2022-07-31T02:29:20.300Z,13.79
2022-07-31T02:31:21.220Z,13.83
2022-07-31T02:33:22.457Z,13.82
2022-07-31T02:35:23.391Z,13.81
2022-07-31T02:37:24.754Z,13.8
2022-07-31T02:39:30.119Z,13.8
2022-07-31T02:41:27.357Z,13.8
2022-07-31T02:43:28.972Z,13.76
2022-07-31T02:45:29.997Z,13.7
2022-07-31T02:47:31.332Z,13.63
2022-07-31T02:49:33.010Z,13.74
2022-07-31T02:51:38.786Z,13.76
2022-07-31T02:53:35.255Z,13.72
2022-07-31T02:55:36.529Z,13.68
2022-07-31T02:57:38.487Z,13.61
2022-07-31T02:59:40.280Z,13.58
2022-07-31T03:01:41.793Z,13.61
2022-07-31T03:03:43.064Z,13.63
2022-07-31T03:05:44.429Z,13.58
2022-07-31T03:07:45.957Z,13.58
2022-07-31T03:09:47.785Z,13.58
2022-07-31T03:11:49.314Z,13.52
2022-07-31T03:13:51.224Z,13.49
2022-07-31T03:15:52.226Z,13.43
2022-07-31T03:17:53.745Z,13.38
2022-07-31T03:19:54.833Z,13.4
2022-07-31T03:21:56.612Z,13.47
2022-07-31T03:23:58.331Z,13.44
2022-07-31T03:26:00.075Z,13.46
2022-07-31T03:28:01.019Z,13.48
2022-07-31T03:30:02.565Z,13.53
2022-07-31T03:32:03.696Z,13.53
2022-07-31T03:34:05.106Z,13.42
2022-07-31T03:36:06.539Z,13.38
2022-07-31T03:38:38.779Z,13.31
2022-07-31T03:40:09.946Z,13.3
2022-07-31T03:42:13.085Z,13.31
2022-07-31T03:44:13.468Z,13.3
2022-07-31T03:46:14.494Z,13.33
2022-07-31T03:48:15.968Z,13.36
2022-07-31T03:50:17.057Z,13.42
2022-07-31T03:52:18.147Z,13.42
2022-07-31T03:54:19.310Z,13.37
2022-07-31T03:56:20.898Z,13.4
2022-07-31T03:58:22.453Z,13.4
2022-07-31T04:00:23.946Z,13.39
2022-07-31T04:02:25.016Z,13.39
2022-07-31T04:04:26.806Z,13.4
2022-07-31T04:06:27.901Z,13.41
2022-07-31T04:08:29.766Z,13.42
2022-07-31T04:10:30.851Z,13.41
2022-07-31T04:12:32.259Z,13.33
2022-07-31T04:16:34.304Z,13.33
2022-07-31T04:18:36.163Z,13.33
2022-07-31T04:20:37.820Z,13.32
2022-07-31T04:22:38.913Z,13.31
2022-07-31T04:24:40.015Z,13.32
2022-07-31T04:26:41.324Z,13.29
2022-07-31T04:27:34.149Z,13.31
2022-07-31T04:29:35.664Z,13.33
2022-07-31T04:31:37.108Z,13.34
2022-07-31T04:33:46.395Z,13.36
2022-07-31T04:35:40.123Z,13.4
2022-07-31T04:37:43.237Z,13.47
2022-07-31T04:39:42.338Z,13.5
2022-07-31T04:41:43.222Z,13.54
2022-07-31T04:43:44.982Z,13.57
2022-07-31T04:45:46.193Z,13.58
2022-07-31T04:47:47.278Z,13.57
2022-07-31T04:49:49.154Z,13.63
2022-07-31T04:51:50.690Z,13.69
2022-07-31T04:53:52.198Z,13.72
2022-07-31T04:55:53.227Z,13.72
2022-07-31T04:57:54.424Z,13.72
2022-07-31T04:59:58.361Z,13.78
2022-07-31T05:01:57.271Z,13.83
2022-07-31T05:03:58.357Z,14.11
2022-07-31T05:05:59.410Z,14.25
2022-07-31T05:08:01.130Z,14.35
2022-07-31T05:10:02.242Z,14.35
2022-07-31T05:12:04.389Z,14.36
2022-07-31T05:14:05.698Z,14.36
2022-07-31T05:16:07.022Z,14.41
2022-07-31T05:18:08.432Z,14.42
2022-07-31T05:20:09.680Z,14.52
2022-07-31T05:22:11.196Z,14.71
2022-07-31T05:24:12.301Z,14.83
2022-07-31T05:26:13.497Z,14.82
2022-07-31T05:28:15.282Z,14.83
2022-07-31T05:30:16.598Z,14.97
2022-07-31T05:32:18.042Z,15.03
2022-07-31T05:34:18.716Z,15.06
2022-07-31T05:36:20.446Z,15.22
2022-07-31T05:38:21.836Z,15.29
2022-07-31T05:40:23.209Z,15.37
2022-07-31T05:42:24.392Z,15.61
2022-07-31T05:44:25.778Z,15.83
2022-07-31T05:46:26.797Z,16.12
2022-07-31T05:48:28.613Z,16.3
2022-07-31T05:50:30.107Z,16.8
2022-07-31T05:52:31.058Z,17.36
2022-07-31T05:54:32.347Z,17.12
2022-07-31T05:56:33.466Z,17.03
2022-07-31T05:58:34.979Z,17.52
2022-07-31T06:00:36.544Z,18.08
2022-07-31T06:02:38.293Z,18.5
2022-07-31T06:04:40.045Z,18.66
2022-07-31T06:06:41.580Z,19.15
2022-07-31T06:08:42.487Z,19.44
2022-07-31T06:10:43.856Z,19.82
2022-07-31T06:12:44.823Z,19.65
2022-07-31T06:16:46.723Z,19.45
2022-07-31T06:18:47.866Z,19.96
2022-07-31T06:20:49.346Z,19.84
2022-07-31T06:22:50.582Z,19.53
2022-07-31T06:24:51.999Z,19.25
2022-07-31T06:26:52.957Z,19.2
2022-07-31T06:28:54.434Z,19.18
2022-07-31T06:30:55.189Z,19.07
2022-07-31T06:32:56.402Z,18.99
2022-07-31T06:35:05.199Z,19.29
2022-07-31T06:36:58.624Z,19.74
2022-07-31T06:39:00.306Z,20.01
2022-07-31T06:41:01.696Z,20.12
2022-07-31T06:43:06.407Z,20.03
2022-07-31T06:45:03.736Z,20.18
2022-07-31T06:47:04.670Z,20.32
2022-07-31T06:49:08.378Z,20.44
2022-07-31T06:53:08.538Z,20.82
2022-07-31T06:55:10.304Z,21.25
2022-07-31T06:57:11.796Z,21.61
2022-07-31T06:59:12.695Z,22.17
2022-07-31T07:01:14.135Z,22.95
2022-07-31T07:03:15.625Z,22.9
2022-07-31T07:05:16.746Z,23.36
2022-07-31T07:07:18.141Z,23.88
2022-07-31T07:09:19.021Z,24.14
2022-07-31T07:11:20.370Z,23.68
2022-07-31T07:13:21.284Z,24.17
2022-07-31T07:15:23.706Z,24.33
2022-07-31T07:17:28.641Z,23.98
2022-07-31T07:19:25.437Z,23.43
2022-07-31T07:21:26.543Z,23.97
2022-07-31T07:23:27.528Z,24.05
2022-07-31T07:25:28.832Z,23.8
2022-07-31T07:27:30.490Z,23.51
2022-07-31T07:29:31.542Z,23.29
2022-07-31T07:31:32.313Z,22.95
2022-07-31T07:33:40.360Z,23.08
2022-07-31T07:35:34.910Z,22.7
2022-07-31T07:37:38.854Z,22.82
2022-07-31T07:39:37.944Z,22.82
2022-07-31T07:41:39.472Z,22.96
2022-07-31T07:43:40.988Z,22.87
2022-07-31T07:45:41.882Z,23.04
2022-07-31T07:47:54.189Z,23.18
2022-07-31T07:49:44.265Z,23.31
2022-07-31T07:51:58.660Z,23.16
2022-07-31T07:53:46.170Z,23.19
2022-07-31T07:55:47.103Z,23.2
2022-07-31T07:57:47.899Z,23.04
2022-07-31T07:59:48.694Z,23.32
2022-07-31T08:01:49.897Z,23.55
2022-07-31T08:03:52.205Z,23.53
2022-07-31T08:05:52.046Z,23.6
2022-07-31T08:07:53.144Z,23.59
2022-07-31T08:09:54.164Z,23.4
2022-07-31T08:11:55.223Z,23.27
2022-07-31T08:13:56.567Z,23.26
2022-07-31T08:15:58.288Z,23.29
2022-07-31T08:17:59.318Z,23.36
2022-07-31T08:20:00.195Z,23.11
2022-07-31T08:22:01.381Z,23.22
2022-07-31T08:24:02.033Z,23.42
2022-07-31T08:26:02.879Z,23.71
2022-07-31T08:28:04.515Z,23.6
2022-07-31T08:30:05.676Z,23.54
2022-07-31T08:32:06.981Z,23.57
2022-07-31T08:34:08.386Z,23.76
2022-07-31T08:36:09.692Z,23.49
2022-07-31T08:38:11.028Z,23.5
2022-07-31T08:40:12.481Z,23.45
2022-07-31T08:42:13.907Z,23.69
2022-07-31T08:44:15.207Z,23.38
2022-07-31T08:46:16.363Z,23.55
2022-07-31T08:48:17.399Z,23.67
2022-07-31T08:50:18.417Z,23.92
2022-07-31T08:52:19.258Z,24.37
2022-07-31T08:54:21.023Z,24.56
2022-07-31T08:56:21.813Z,24.87
2022-07-31T08:58:22.672Z,25.17
2022-07-31T09:00:23.946Z,25.41
2022-07-31T09:02:25.716Z,25.08
2022-07-31T09:04:26.596Z,25.17
2022-07-31T09:06:27.760Z,25.29
2022-07-31T09:08:28.787Z,25.37
2022-07-31T09:10:30.079Z,25.37
2022-07-31T09:12:32.513Z,25.45
2022-07-31T09:14:32.136Z,25.3
2022-07-31T09:16:33.355Z,25.13
2022-07-31T09:18:34.147Z,25.49
2022-07-31T09:20:35.605Z,25.49
2022-07-31T09:22:36.641Z,25.63
2022-07-31T09:24:39.711Z,25.75
2022-07-31T09:26:39.455Z,25.79
2022-07-31T09:28:40.602Z,25.5
2022-07-31T09:30:55.937Z,25.83
2022-07-31T09:32:43.132Z,26.38
2022-07-31T09:34:44.150Z,26.56
2022-07-31T09:36:45.809Z,26.2
2022-07-31T09:38:47.488Z,26.7
2022-07-31T09:40:55.542Z,26.54
2022-07-31T09:42:55.168Z,26.53
2022-07-31T09:44:50.473Z,26.83
2022-07-31T09:46:51.933Z,27.26
2022-07-31T09:48:56.590Z,27.26
2022-07-31T09:50:54.498Z,27.09
2022-07-31T09:52:55.991Z,27.18
2022-07-31T09:54:57.661Z,27.63
2022-07-31T09:56:59.158Z,27.26
2022-07-31T09:58:59.992Z,27.52
2022-07-31T10:01:01.000Z,27.62
2022-07-31T10:03:02.660Z,27.73
2022-07-31T10:05:03.811Z,27.72
2022-07-31T10:07:05.602Z,27.72
2022-07-31T10:09:06.147Z,27.9
2022-07-31T10:11:07.046Z,28.24
2022-07-31T10:13:08.812Z,27.53
2022-07-31T10:15:10.184Z,27.79
2022-07-31T10:17:11.820Z,27.7
2022-07-31T10:19:12.812Z,27.98
2022-07-31T10:21:14.129Z,27.79
2022-07-31T10:23:15.726Z,27.63
2022-07-31T10:25:17.198Z,28.13
2022-07-31T10:27:18.846Z,28.6
2022-07-31T10:29:20.487Z,28.31
2022-07-31T10:31:21.933Z,28.63
2022-07-31T10:33:42.811Z,28.2
2022-07-31T10:35:24.031Z,28.11
2022-07-31T10:37:25.392Z,28.09
2022-07-31T10:39:26.629Z,28.19
2022-07-31T10:41:28.157Z,27.92
2022-07-31T10:43:29.843Z,28.2
2022-07-31T10:45:30.623Z,28.42
2022-07-31T10:47:32.330Z,28.51
2022-07-31T10:49:34.055Z,28.46
2022-07-31T10:51:35.712Z,28.97
2022-07-31T10:53:50.018Z,29.24
2022-07-31T10:55:38.286Z,29.47
2022-07-31T10:57:55.493Z,29.33
2022-07-31T10:59:44.319Z,29.55
2022-07-31T11:01:41.157Z,29.39
2022-07-31T11:03:42.772Z,29.1
2022-07-31T11:06:00.773Z,29.09
2022-07-31T11:07:45.593Z,28.09
2022-07-31T11:09:50.480Z,27.87
2022-07-31T11:11:48.446Z,27.57
2022-07-31T11:12:32.094Z,27.66
2022-07-31T11:14:33.172Z,27.8
2022-07-31T11:16:34.484Z,27.87
2022-07-31T11:18:35.866Z,27.96
2022-07-31T11:20:36.753Z,27.84
2022-07-31T11:22:37.556Z,27.95
2022-07-31T11:24:39.284Z,27.71
2022-07-31T11:26:41.811Z,27.77
2022-07-31T11:28:41.692Z,27.81
2022-07-31T11:30:42.534Z,27.57
2022-07-31T11:32:43.910Z,27.58
2022-07-31T11:34:45.370Z,27.57
2022-07-31T11:36:50.842Z,27.65
2022-07-31T11:38:47.802Z,28.15
2022-07-31T11:40:49.218Z,28.2
2022-07-31T11:43:04.929Z,27.81
2022-07-31T11:44:51.969Z,28.24
2022-07-31T11:46:52.996Z,28.45
2022-07-31T11:48:54.361Z,28.53
2022-07-31T11:50:55.158Z,28.65
2022-07-31T11:52:56.497Z,28.83
2022-07-31T11:54:57.778Z,29.33
2022-07-31T11:56:58.737Z,30.08
2022-07-31T11:58:59.449Z,29.71
2022-07-31T12:01:01.204Z,29.91
2022-07-31T12:03:02.020Z,29.95
2022-07-31T12:05:03.313Z,29.23
2022-07-31T12:07:04.813Z,28.69
2022-07-31T12:09:06.156Z,28.01
2022-07-31T12:11:07.475Z,28.25
2022-07-31T12:13:11.809Z,28.01
2022-07-31T12:15:10.442Z,27.9
2022-07-31T12:17:11.831Z,27.77
2022-07-31T12:19:13.311Z,27.83
2022-07-31T12:21:14.138Z,27.82
2022-07-31T12:23:38.874Z,27.83
2022-07-31T12:25:16.120Z,27.79
2022-07-31T12:27:17.359Z,28.17
2022-07-31T12:29:18.807Z,28.17
2022-07-31T12:31:19.651Z,28.76
2022-07-31T12:33:20.838Z,28.82
2022-07-31T12:35:22.462Z,29.3
2022-07-31T12:37:23.587Z,29.07
2022-07-31T12:39:25.154Z,29.54
2022-07-31T12:41:26.054Z,29.34
2022-07-31T12:43:26.826Z,28.93
2022-07-31T12:45:28.541Z,28.92
2022-07-31T12:47:29.663Z,29.16
2022-07-31T12:49:31.105Z,29.14
2022-07-31T12:51:43.917Z,28.87
2022-07-31T12:53:34.086Z,28.95
2022-07-31T12:55:35.166Z,29.16
2022-07-31T12:57:36.551Z,28.69
2022-07-31T12:59:38.082Z,28.45
2022-07-31T13:01:39.700Z,28.56
2022-07-31T13:03:46.201Z,28.57
2022-07-31T13:05:42.114Z,28.56
2022-07-31T13:07:43.434Z,28.7
2022-07-31T13:09:44.634Z,28.86
2022-07-31T13:11:48.252Z,28.96
2022-07-31T13:13:47.720Z,28.47
2022-07-31T13:15:49.121Z,28.83
2022-07-31T13:17:50.171Z,29.14
2022-07-31T13:19:51.576Z,29.15
2022-07-31T13:21:52.851Z,29.05
2022-07-31T13:23:56.083Z,28.9
2022-07-31T13:25:54.585Z,28.71
2022-07-31T13:27:56.155Z,28.87
2022-07-31T13:29:57.473Z,28.71
2022-07-31T13:31:58.328Z,28.65
2022-07-31T13:33:59.060Z,28.73
2022-07-31T13:36:00.518Z,28.55
2022-07-31T13:38:01.559Z,28.62
2022-07-31T13:40:03.146Z,28.41
2022-07-31T13:42:04.142Z,29.36
2022-07-31T13:44:05.226Z,29.9
2022-07-31T13:46:06.881Z,30.82
2022-07-31T13:48:09.458Z,30.06
2022-07-31T13:50:08.973Z,29.9
2022-07-31T13:52:10.637Z,30.15
2022-07-31T13:54:12.223Z,29.57
2022-07-31T13:56:13.590Z,29.73
2022-07-31T13:58:14.642Z,29.7
2022-07-31T14:00:16.307Z,29.83
2022-07-31T14:02:25.081Z,29.6
2022-07-31T14:04:23.432Z,29.59
2022-07-31T14:06:19.413Z,29.3
2022-07-31T14:08:29.665Z,29.53
2022-07-31T14:10:21.905Z,30
2022-07-31T14:12:23.559Z,30.24
2022-07-31T14:14:24.868Z,29.86
2022-07-31T14:16:26.129Z,30.36
2022-07-31T14:18:27.516Z,31.07
2022-07-31T14:20:28.731Z,31.09
2022-07-31T14:22:30.494Z,30.76
2022-07-31T14:24:31.826Z,30.41
2022-07-31T14:26:33.025Z,29.61
2022-07-31T14:28:33.753Z,29.9
2022-07-31T14:30:35.141Z,30.4
2022-07-31T14:32:36.785Z,29.52
2022-07-31T14:34:38.022Z,29.41
2022-07-31T14:36:38.878Z,29.37
2022-07-31T14:38:40.460Z,29.65
2022-07-31T14:40:41.331Z,30.39
2022-07-31T14:42:42.458Z,30.36
2022-07-31T14:44:43.505Z,30.29
2022-07-31T14:46:44.804Z,30.8
2022-07-31T14:48:46.356Z,31.33
2022-07-31T14:50:47.488Z,31.1
2022-07-31T14:52:48.548Z,30.84
2022-07-31T14:54:49.995Z,30.79
2022-07-31T14:57:01.060Z,30.87
2022-07-31T14:58:57.166Z,31.01
2022-07-31T15:00:53.726Z,31.04
2022-07-31T15:02:54.993Z,31.5
2022-07-31T15:04:56.342Z,31.57
2022-07-31T15:07:12.906Z,31.82
2022-07-31T15:08:59.447Z,31.43
2022-07-31T15:11:00.612Z,31.77
2022-07-31T15:13:01.807Z,31.62
2022-07-31T15:15:02.741Z,31.72
2022-07-31T15:17:04.543Z,31.26
2022-07-31T15:19:05.698Z,31.1
2022-07-31T15:21:06.931Z,30.63
2022-07-31T15:23:08.033Z,30.05
2022-07-31T15:25:09.567Z,29.6
2022-07-31T15:27:10.503Z,29.38
2022-07-31T15:29:11.428Z,29.59
2022-07-31T15:31:13.149Z,29.89
2022-07-31T15:33:14.384Z,29.71
2022-07-31T15:35:15.840Z,29.84
2022-07-31T15:37:19.996Z,30.5
2022-07-31T15:39:18.272Z,30.56
2022-07-31T15:41:19.423Z,30.74
2022-07-31T15:43:21.092Z,31.52
2022-07-31T15:45:21.918Z,31.25
2022-07-31T15:47:23.141Z,30.62
2022-07-31T15:49:24.523Z,30.49
2022-07-31T15:51:26.120Z,30.3
2022-07-31T15:53:29.983Z,30.22
2022-07-31T15:55:28.390Z,30.08
2022-07-31T15:57:29.253Z,29.74
2022-07-31T15:59:30.828Z,29.65
2022-07-31T16:01:32.548Z,29.68
2022-07-31T16:03:43.641Z,29.8
2022-07-31T16:08:27.470Z,29.4
2022-07-31T16:09:37.171Z,29.22
2022-07-31T16:12:03.146Z,29.25
2022-07-31T16:13:39.148Z,29.27
2022-07-31T16:15:40.438Z,29.1
2022-07-31T16:17:41.352Z,29.13
2022-07-31T16:19:42.175Z,29.1
2022-07-31T16:21:43.611Z,29.21
2022-07-31T16:23:45.159Z,29.28
2022-07-31T16:25:46.797Z,29.4
2022-07-31T16:27:48.275Z,29.89
2022-07-31T16:29:57.673Z,29.66
2022-07-31T16:31:50.482Z,29.49
2022-07-31T16:33:51.815Z,29.52
2022-07-31T16:35:52.774Z,29.4
2022-07-31T16:37:54.361Z,29.27
2022-07-31T16:39:55.625Z,29.35
2022-07-31T16:41:57.147Z,29.24
2022-07-31T16:43:58.666Z,29.23
2022-07-31T16:45:59.669Z,29.17
2022-07-31T16:48:00.928Z,29.08
2022-07-31T16:50:02.391Z,29.14
2022-07-31T16:52:04.198Z,29.03
2022-07-31T16:54:10.234Z,28.85
2022-07-31T16:56:06.618Z,28.86
2022-07-31T16:58:07.816Z,28.89
2022-07-31T17:00:08.597Z,28.94
2022-07-31T17:02:09.542Z,28.86
2022-07-31T17:04:10.594Z,28.89
2022-07-31T17:06:11.697Z,29.22
2022-07-31T17:08:12.688Z,29.48
2022-07-31T17:10:22.854Z,29.77
2022-07-31T17:12:15.143Z,29.89
2022-07-31T17:14:16.628Z,29.83
2022-07-31T17:16:17.464Z,29.33
2022-07-31T17:18:19.106Z,29.16
2022-07-31T17:20:19.959Z,29.14
2022-07-31T17:22:21.614Z,29.05
2022-07-31T17:24:23.281Z,28.92
2022-07-31T17:26:24.611Z,28.89
2022-07-31T17:28:26.176Z,28.88
2022-07-31T17:30:27.307Z,28.84
2022-07-31T17:32:28.599Z,28.84
2022-07-31T17:34:29.831Z,28.84
2022-07-31T17:36:31.469Z,28.83
2022-07-31T17:38:32.696Z,28.83
2022-07-31T17:40:43.315Z,28.84
2022-07-31T17:42:34.730Z,28.88
2022-07-31T17:44:36.342Z,28.9
2022-07-31T17:46:43.791Z,28.89
2022-07-31T17:48:39.619Z,28.85
2022-07-31T17:50:40.984Z,28.88
2022-07-31T17:52:42.355Z,28.82
2022-07-31T17:54:43.899Z,28.79
2022-07-31T17:56:44.703Z,28.77
2022-07-31T17:59:30.157Z,28.62
2022-07-31T18:01:31.416Z,28.53
2022-07-31T18:03:33.081Z,28.4
2022-07-31T18:05:34.166Z,28.33
2022-07-31T18:07:35.711Z,28.28
2022-07-31T18:09:36.798Z,28.14
2022-07-31T18:11:38.007Z,28.09
2022-07-31T18:13:47.896Z,28.1
2022-07-31T18:15:40.676Z,28
2022-07-31T18:17:41.943Z,27.96
2022-07-31T18:19:42.769Z,27.94
2022-07-31T18:21:44.323Z,27.85
2022-07-31T18:23:47.418Z,27.83
2022-07-31T18:25:47.285Z,27.79
2022-07-31T18:27:49.064Z,27.76
2022-07-31T18:29:55.760Z,27.49
2022-07-31T18:31:51.479Z,27.26
2022-07-31T18:33:52.536Z,27.07
2022-07-31T18:35:53.992Z,26.85
2022-07-31T18:37:54.811Z,26.78
2022-07-31T18:39:56.259Z,26.57
2022-07-31T18:41:57.695Z,26.44
2022-07-31T18:43:58.996Z,26.33
2022-07-31T18:46:00.808Z,26.28
2022-07-31T18:48:02.410Z,26.29
2022-07-31T18:50:57.669Z,26.1
2022-07-31T18:52:04.884Z,26.07
2022-07-31T18:54:05.999Z,26.11
2022-07-31T18:56:07.214Z,26.12
2022-07-31T18:58:08.389Z,26.14
2022-07-31T19:00:10.024Z,25.94
2022-07-31T19:02:11.407Z,25.8
2022-07-31T19:04:12.098Z,25.8
2022-07-31T19:06:13.534Z,25.7
2022-07-31T19:08:14.436Z,25.64
2022-07-31T19:10:29.023Z,25.53
2022-07-31T19:12:17.188Z,25.43
2022-07-31T19:14:18.887Z,25.3
2022-07-31T19:16:21.029Z,25.24
2022-07-31T19:18:24.427Z,25.09
2022-07-31T19:20:40.688Z,25.05
2022-07-31T19:22:24.614Z,25.01
2022-07-31T19:24:26.069Z,24.94
2022-07-31T19:26:27.305Z,24.97
2022-07-31T19:28:28.559Z,24.95
2022-07-31T19:30:29.640Z,24.87
2022-07-31T19:32:31.228Z,24.71
2022-07-31T19:34:32.713Z,24.47
2022-07-31T19:36:33.988Z,24.32
2022-07-31T19:38:35.649Z,24.15
2022-07-31T19:40:37.210Z,24.06
2022-07-31T19:42:38.710Z,24.01
2022-07-31T19:44:40.123Z,23.83
2022-07-31T19:46:41.259Z,23.83
2022-07-31T19:48:42.728Z,23.91
2022-07-31T19:50:44.389Z,23.83
2022-07-31T19:52:45.550Z,23.79
2022-07-31T19:54:47.150Z,23.72
2022-07-31T19:56:47.983Z,23.64
2022-07-31T19:58:49.615Z,23.65
2022-07-31T20:00:50.625Z,23.77
2022-07-31T20:02:52.115Z,23.58
2022-07-31T20:04:53.519Z,23.71
2022-07-31T20:06:54.861Z,23.71
2022-07-31T20:08:56.259Z,23.72
2022-07-31T20:10:57.282Z,23.63
2022-07-31T20:12:58.536Z,23.32
2022-07-31T20:15:00.020Z,23.16
2022-07-31T20:17:01.229Z,23.06
2022-07-31T20:19:02.905Z,23.02
2022-07-31T20:21:04.670Z,22.85
2022-07-31T20:23:06.195Z,22.82
2022-07-31T20:25:12.136Z,22.82
2022-07-31T20:27:08.670Z,22.72
2022-07-31T20:29:10.111Z,22.77
2022-07-31T20:31:16.257Z,22.86
2022-07-31T20:33:13.618Z,22.84
2022-07-31T20:35:29.358Z,22.77
2022-07-31T20:37:15.818Z,22.72
2022-07-31T20:39:17.596Z,22.73
2022-07-31T20:41:18.559Z,22.83
2022-07-31T20:43:19.537Z,22.83
2022-07-31T20:45:21.200Z,22.77
2022-07-31T20:47:24.466Z,22.36
2022-07-31T20:49:34.389Z,22.32
2022-07-31T20:51:25.571Z,22.3
2022-07-31T20:53:26.552Z,22.02
2022-07-31T20:55:27.412Z,22
2022-07-31T20:57:28.404Z,22.05
2022-07-31T20:59:29.259Z,22.07
2022-07-31T21:01:31.042Z,22.09
2022-07-31T21:03:32.187Z,22.12
2022-07-31T21:05:33.665Z,22.07
2022-07-31T21:07:35.004Z,22.08
2022-07-31T21:09:36.293Z,22.08
2022-07-31T21:11:37.995Z,22.04
2022-07-31T21:13:39.277Z,22.02
2022-07-31T21:15:44.364Z,21.95
2022-07-31T21:17:42.610Z,21.81
2022-07-31T21:19:43.737Z,21.67
2022-07-31T21:21:44.621Z,21.41
2022-07-31T21:23:45.958Z,21.4
2022-07-31T21:25:47.128Z,21.32
2022-07-31T21:27:48.287Z,21.26
2022-07-31T21:29:51.880Z,21.16
2022-07-31T21:31:51.503Z,21.24
2022-07-31T21:33:52.440Z,21.33
2022-07-31T21:35:53.828Z,21.32
2022-07-31T21:37:56.788Z,21.16
2022-07-31T21:39:56.803Z,21.08
2022-07-31T21:41:58.291Z,20.89
2022-07-31T21:43:59.992Z,20.78
2022-07-31T21:48:02.500Z,20.58
2022-07-31T21:50:04.097Z,20.56
2022-07-31T21:52:06.032Z,20.72
2022-07-31T21:54:06.808Z,20.68
2022-07-31T21:56:08.493Z,20.69
2022-07-31T21:58:09.959Z,20.63
2022-07-31T22:00:13.811Z,20.54
2022-07-31T22:02:13.149Z,20.41
2022-07-31T22:04:14.647Z,20.36
2022-07-31T22:06:16.327Z,20.32
2022-07-31T22:08:17.872Z,20.31
2022-07-31T22:10:18.946Z,20.27
2022-07-31T22:12:19.927Z,20.14
2022-07-31T22:14:21.361Z,20.04
2022-07-31T22:16:22.977Z,20.04
2022-07-31T22:18:26.181Z,19.92
2022-07-31T22:20:25.789Z,19.79
2022-07-31T22:22:26.666Z,19.84
2022-07-31T22:24:27.894Z,20.07
2022-07-31T22:26:29.129Z,19.98
2022-07-31T22:28:30.672Z,19.93
2022-07-31T22:30:32.268Z,19.85
2022-07-31T22:32:34.096Z,19.81
2022-07-31T22:34:36.957Z,19.78
2022-07-31T22:36:36.300Z,19.76
2022-07-31T22:38:37.837Z,19.78
2022-07-31T22:40:39.024Z,19.74
2022-07-31T22:42:40.131Z,19.77
2022-07-31T22:44:41.897Z,19.72
2022-07-31T22:46:43.615Z,19.65
2022-07-31T22:48:44.647Z,19.53
2022-07-31T22:50:46.196Z,19.44
2022-07-31T22:52:47.967Z,19.43
2022-07-31T22:54:48.954Z,19.45
2022-07-31T22:56:50.485Z,19.38
2022-07-31T22:58:51.948Z,19.37
2022-07-31T23:00:53.082Z,19.35
2022-07-31T23:02:54.197Z,19.27
2022-07-31T23:04:55.596Z,19.1
2022-07-31T23:06:57.317Z,19.08
2022-07-31T23:08:59.048Z,19.09
2022-07-31T23:11:00.264Z,19.01
2022-07-31T23:13:01.179Z,18.93
2022-07-31T23:15:02.384Z,18.95
2022-07-31T23:17:03.938Z,18.99
2022-07-31T23:19:05.751Z,19.04
2022-07-31T23:21:08.289Z,19.18
2022-07-31T23:23:08.647Z,19.3
2022-07-31T23:25:10.431Z,19.39
2022-07-31T23:27:11.539Z,19.43
2022-07-31T23:29:12.765Z,19.55
2022-07-31T23:31:14.555Z,19.52
2022-07-31T23:33:16.053Z,19.46
2022-07-31T23:35:17.520Z,19.43
2022-07-31T23:37:18.593Z,19.38
2022-07-31T23:39:19.452Z,19.38
2022-07-31T23:41:20.542Z,19.28
2022-07-31T23:43:21.775Z,19.2
2022-07-31T23:45:23.389Z,19.21
2022-07-31T23:47:24.903Z,19.19
2022-07-31T23:49:26.202Z,19.11
2022-07-31T23:51:27.273Z,19
2022-07-31T23:53:28.558Z,18.99
2022-07-31T23:55:29.609Z,18.86
2022-07-31T23:57:34.205Z,18.79
2022-07-31T23:59:32.336Z,18.84
